Weather observations for the past three days for
Redwood Falls Municipal Airport
Imperial (Metric)
Date Time (cdt) Wind (mph) Vis. (mi.) Weather Sky Cond. Temperature (ºF) Relative Humidity Wind Chill (°F) Heat Index (°F) Pressure Precipitation (in)
Air Dwpt 6 hour altimeter (in) sea level (mb) 1 hr 3 hr 6 hr
Max. Min.
10 08:53 N 6 10.00 Fair CLR 50 30.9 48% 48 30.12 1020.4
10 07:53 NW 3 10.00 A Few Clouds FEW090 44.1 28 53% 30.11 1020.1
10 06:53 N 3 10.00 Mostly Cloudy BKN090 37.9 27 44.1 37 65% 30.09 1019.4
10 05:53 Calm 10.00 Mostly Cloudy BKN095 39 25 57% 30.07 1018.9
10 04:53 SW 9 10.00 Fair CLR 41 25 53% 36 30.06 1018.5
10 03:53 W 7 10.00 Overcast OVC090 39 26.1 60% 35 30.05 1018.1
10 02:53 W 3 10.00 Overcast OVC090 39.9 28 63% 30.04 1017.6
10 01:53 SW 6 10.00 Mostly Cloudy BKN090 42.1 26.1 53% 39 30.03 1017.4
10 00:53 Calm 10.00 Fair CLR 44.1 26.1 57.9 43 49% 30.03 1017.3
09 23:53 W 3 10.00 Fair CLR 46 23 40% 30.02 1016.8
09 22:53 NW 5 10.00 Fair CLR 48 23 37% 47 30.01 1016.6
09 21:53 NW 5 10.00 Fair CLR 50 23 35% 49 29.99 1015.9
09 20:53 N 6 10.00 Fair CLR 52 23 32% 29.96 1014.8
09 19:53 NW 12 G 22 10.00 Fair CLR 55.9 23 28% 29.94 1014.0
09 18:53 N 9 G 20 10.00 Fair CLR 57.9 24.1 61 57.9 27% 29.92 1013.3
09 17:53 NW 16 G 26 10.00 Fair CLR 59 21.9 24% 29.9 1012.7
09 16:53 N 17 G 26 10.00 Fair CLR 60.1 23 24% 29.88 1012.1
09 15:53 NW 13 G 29 10.00 Fair CLR 60.1 23 24% 29.87 1011.7
09 14:53 N 15 G 39 10.00 Fair CLR 61 23 23% 29.86 1011.3
09 13:53 N 20 G 37 10.00 Fair CLR 60.1 24.1 25% 29.85 1011.1
09 12:53 N 20 G 33 10.00 Fair CLR 57.9 25 60.1 48.9 28% 29.84 1010.8
09 11:53 N 18 G 30 10.00 Fair CLR 59 28.9 32% 29.83 1010.4
09 10:53 N 18 G 28 10.00 Fair CLR 57 32 39% 29.82 1009.9
09 09:53 N 14 G 24 10.00 Fair CLR 54 36 51% 29.8 1009.2
09 08:53 N 14 G 25 10.00 A Few Clouds FEW020 51.1 41 69% 29.78 1008.4
09 07:53 NW 13 G 23 10.00 Fair CLR 48.9 44.1 83% 44 29.74 1007.1
09 06:53 NW 16 G 29 10.00 Overcast BKN021 OVC070 50 46 52 48 86% 45 29.71 1006.0 0.01
09 05:53 W 15 10.00 Light Rain OVC060 50 45 83% 45 29.68 1005.0 0.01
09 04:53 W 5 10.00 Overcast OVC110 50 36 59% 49 29.68 1005.0
09 03:53 NW 10 10.00 Mostly Cloudy BKN110 51.1 30.9 46% 29.66 1004.1
09 02:53 W 9 10.00 Fair CLR 50 30 46% 47 29.59 1001.9
09 01:53 SW 10 10.00 Fair CLR 50 30 46% 46 29.6 1002.3
09 00:53 SW 9 10.00 Fair CLR 50 30 70 48.9 46% 47 29.62 1003.0
08 23:53 SW 7 10.00 Fair CLR 53.1 30 41% 29.65 1003.9
08 22:53 W 6 10.00 Fair CLR 55.9 28 34% 29.66 1004.3
08 21:53 NW 7 10.00 Fair CLR 59 28 31% 29.66 1004.4
08 20:53 NW 8 10.00 Fair CLR 63 28 27% 29.66 1004.1
08 19:53 NW 12 G 26 10.00 Fair CLR 66.9 27 22% 29.63 1003.4
08 18:53 NW 17 G 32 10.00 Fair CLR 70 25 75 66.9 18% 29.62 1003.0
08 17:53 NW 23 G 37 10.00 A Few Clouds and Breezy FEW100 72 30 21% 29.61 1002.8
08 16:53 NW 17 G 28 10.00 A Few Clouds FEW100 71.1 30 22% 29.61 1002.7
08 15:53 NW 18 G 26 10.00 Partly Cloudy SCT110 73.9 32 21% 29.61 1002.7
08 14:53 W 13 G 24 10.00 Mostly Cloudy BKN100 71.1 28.9 21% 29.63 1003.4
08 13:53 W 15 G 24 10.00 Mostly Cloudy BKN100 BKN120 69.1 32 25% 29.66 1004.5
08 12:53 W 18 G 30 10.00 Partly Cloudy SCT110 70 27 72 45 20% 29.67 1004.9
08 11:53 W 17 G 24 10.00 Fair CLR 69.1 25 19% 29.7 1005.8
08 10:53 W 13 10.00 Fair CLR 66.9 23 19% 29.72 1006.5
08 09:53 W 13 10.00 Mostly Cloudy BKN095 63 28 27% 29.75 1007.3
08 08:53 SW 9 10.00 Mostly Cloudy BKN095 55.9 27 33% 29.75 1007.7
08 07:53 SW 9 10.00 Overcast OVC100 51.1 26.1 38% 29.76 1008.0
08 06:53 SW 12 10.00 Overcast OVC110 45 23 45 42.1 42% 40 29.76 1008.0
08 05:53 S 10 10.00 Fair CLR 42.1 21.9 45% 37 29.76 1007.9
08 04:53 SW 12 10.00 Fair CLR 44.1 21.9 41% 39 29.77 1008.2
08 03:53 SW 10 10.00 Fair CLR 43 21.9 43% 38 29.78 1008.6
08 02:53 S 9 10.00 Fair CLR 44.1 21.9 41% 40 29.78 1008.7
08 01:53 S 8 10.00 Fair CLR 43 21 42% 39 29.79 1009.1
08 00:53 S 8 10.00 Fair CLR 44.1 21 61 42.1 40% 40 29.8 1009.6
07 23:53 S 5 10.00 Fair CLR 46 21.9 38% 44 29.81 1009.8
07 22:53 S 3 10.00 Fair CLR 50 21 32% 29.82 1010.1
07 21:53 Calm 10.00 Fair CLR 53.1 19 26% 29.82 1010.2
07 20:53 NW 3 10.00 Fair CLR 55 19.9 25% 29.81 1009.9
07 19:53 N 6 10.00 Fair CLR 57.9 19.9 23% 29.79 1009.3
07 18:53 NW 12 10.00 Fair CLR 61 19.9 62.1 54 20% 29.79 1009.3
07 17:53 W 9 G 25 10.00 Fair CLR 62.1 21 21% 29.8 1009.3
07 16:53 W 14 10.00 Fair CLR 61 19.9 20% 29.81 1009.7
07 15:53 NW 10 10.00 Fair CLR 61 19.9 20% 29.82 1010.1
07 14:53 W 16 G 25 10.00 Fair CLR 60.1 19 20% 29.84 1010.9
07 13:53 NW 8 10.00 Fair CLR 57 19 23% 29.85 1011.4
07 12:53 Calm 10.00 Fair CLR 54 19 55.9 39 25% 29.86 1012.0
07 11:53 Vrbl 5 10.00 Fair CLR 54 19.9 26% 29.89 1012.7
07 10:53 Vrbl 5 10.00 Fair CLR 52 19 27% 29.89 1012.8
07 09:53 Calm 10.00 Fair CLR 48.9 21 33% 29.89 1012.9
Date Time (cdt) Wind (mph) Vis. (mi.) Weather Sky Cond. Air Dwpt Max. Min. Relative Humidity Wind Chill (°F) Heat Index (°F) altimeter (in) sea level (mb) 1 hr 3 hr 6 hr
6 hour
Temperature (ºF) Pressure Precipitation (in)